createdAt,value
2023-05-13T00:01:27.447Z,7.23
2023-05-13T00:03:56.492Z,6.18
2023-05-13T00:06:25.754Z,4.88
2023-05-13T00:08:54.747Z,6.13
2023-05-13T00:11:23.766Z,5.63
2023-05-13T00:13:52.941Z,6.65
2023-05-13T00:16:27.632Z,3.70
2023-05-13T00:18:57.107Z,6.22
2023-05-13T00:21:26.255Z,7.10
2023-05-13T00:23:55.807Z,4.68
2023-05-13T00:26:24.940Z,4.60
2023-05-13T00:28:53.993Z,5.03
2023-05-13T00:31:24.440Z,5.50
2023-05-13T00:33:53.481Z,9.77
2023-05-13T00:36:22.736Z,6.90
2023-05-13T00:38:51.791Z,7.15
2023-05-13T00:41:21.820Z,6.53
2023-05-13T00:43:51.334Z,7.25
2023-05-13T00:46:20.693Z,5.63
2023-05-13T00:48:51.361Z,5.30
2023-05-13T00:51:20.531Z,7.88
2023-05-13T00:53:51.116Z,5.25
2023-05-13T00:56:21.734Z,5.53
2023-05-13T00:58:50.901Z,5.80
2023-05-13T01:01:33.881Z,6.22
2023-05-13T01:04:16.004Z,6.05
2023-05-13T01:06:58.202Z,5.20
2023-05-13T01:09:38.088Z,6.25
2023-05-13T01:12:12.084Z,11.32
2023-05-13T01:14:49.022Z,7.40
2023-05-13T01:17:21.896Z,5.28
2023-05-13T01:19:55.829Z,5.65
2023-05-13T01:22:26.250Z,10.00
2023-05-13T01:24:55.256Z,6.73
2023-05-13T01:27:24.725Z,6.82
2023-05-13T01:29:55.836Z,9.48
2023-05-13T01:32:29.905Z,5.70
2023-05-13T01:34:59.753Z,6.78
2023-05-13T01:37:31.386Z,5.18
2023-05-13T01:40:01.036Z,6.60
2023-05-13T01:42:32.250Z,5.22
2023-05-13T01:45:01.344Z,5.95
2023-05-13T01:47:30.783Z,5.07
2023-05-13T01:50:00.306Z,5.53
2023-05-13T01:52:31.565Z,5.47
2023-05-13T01:55:00.686Z,6.30
2023-05-13T01:57:30.071Z,6.38
2023-05-13T01:59:59.659Z,4.30
2023-05-13T02:02:28.785Z,7.15
2023-05-13T02:04:58.100Z,5.72
2023-05-13T02:07:27.160Z,6.50
2023-05-13T02:09:59.939Z,8.00
2023-05-13T02:12:29.112Z,5.45
2023-05-13T02:14:58.182Z,5.90
2023-05-13T02:17:27.305Z,5.90
2023-05-13T02:19:56.410Z,3.80
2023-05-13T02:22:25.701Z,4.63
2023-05-13T02:24:54.847Z,5.95
2023-05-13T02:27:25.260Z,7.93
2023-05-13T02:29:54.487Z,7.95
2023-05-13T02:32:23.682Z,9.63
2023-05-13T02:34:52.726Z,7.15
2023-05-13T02:37:23.054Z,4.45
2023-05-13T02:40:00.357Z,6.85
2023-05-13T02:42:30.857Z,4.82
2023-05-13T02:45:00.055Z,6.63
2023-05-13T02:47:31.648Z,6.13
2023-05-13T02:50:06.332Z,11.77
2023-05-13T02:52:36.303Z,6.03
2023-05-13T02:55:07.408Z,6.18
2023-05-13T02:57:38.716Z,5.35
2023-05-13T03:02:37.438Z,9.57
2023-05-13T03:05:07.436Z,6.60
2023-05-13T03:07:36.668Z,7.22
2023-05-13T03:10:07.734Z,7.65
2023-05-13T03:12:38.223Z,10.02
2023-05-13T03:17:37.702Z,8.77
2023-05-13T03:20:08.796Z,8.77
2023-05-13T03:22:38.773Z,6.60
2023-05-13T03:25:09.061Z,7.28
2023-05-13T03:27:45.879Z,8.65
2023-05-13T03:30:15.547Z,8.85
2023-05-13T03:32:51.044Z,8.68
2023-05-13T03:35:20.272Z,8.27
2023-05-13T03:37:49.802Z,11.18
2023-05-13T03:40:20.333Z,8.48
2023-05-13T03:42:51.419Z,9.43
2023-05-13T03:45:22.552Z,10.27
2023-05-13T03:47:54.627Z,12.23
2023-05-13T03:52:54.967Z,14.95
2023-05-13T03:55:24.834Z,15.27
2023-05-13T03:57:55.247Z,14.07
2023-05-13T04:00:24.619Z,14.67
2023-05-13T04:02:53.781Z,13.88
2023-05-13T04:05:23.296Z,12.63
2023-05-13T04:07:52.334Z,15.80
2023-05-13T04:10:21.669Z,15.90
2023-05-13T04:12:50.908Z,12.35
2023-05-13T04:15:21.489Z,13.93
2023-05-13T04:17:50.957Z,14.32
2023-05-13T04:20:20.395Z,17.88
2023-05-13T04:22:49.750Z,16.75
2023-05-13T04:25:18.888Z,19.55
2023-05-13T04:27:48.561Z,22.80
2023-05-13T04:30:26.964Z,18.60
2023-05-13T04:32:56.036Z,20.35
2023-05-13T04:35:25.628Z,19.23
2023-05-13T04:37:59.034Z,25.48
2023-05-13T04:40:28.296Z,24.65
2023-05-13T04:43:00.221Z,40.00
2023-05-13T04:45:38.423Z,40.90
2023-05-13T04:48:10.499Z,51.28
2023-05-13T04:50:39.643Z,69.82
2023-05-13T04:53:10.709Z,105.35
2023-05-13T04:55:39.729Z,103.22
2023-05-13T04:58:08.800Z,119.72
2023-05-13T05:00:39.959Z,85.97
2023-05-13T05:03:09.169Z,106.90
2023-05-13T05:05:38.756Z,82.18
2023-05-13T05:08:09.280Z,68.00
2023-05-13T05:10:39.616Z,144.15
2023-05-13T05:13:11.128Z,74.82
2023-05-13T05:15:42.343Z,117.15
2023-05-13T05:18:13.759Z,215.80
2023-05-13T05:20:44.425Z,156.25
2023-05-13T05:23:17.924Z,83.38
2023-05-13T05:25:48.576Z,87.28
2023-05-13T05:28:19.467Z,270.40
2023-05-13T05:30:50.161Z,105.13
2023-05-13T05:33:28.633Z,83.93
2023-05-13T05:35:57.851Z,77.57
2023-05-13T05:38:26.963Z,119.20
2023-05-13T05:40:58.068Z,84.80
2023-05-13T05:43:27.138Z,111.18
2023-05-13T05:45:57.650Z,101.30
2023-05-13T05:48:34.794Z,73.72
2023-05-13T05:51:05.105Z,51.72
2023-05-13T05:53:41.112Z,95.10
2023-05-13T05:56:12.969Z,184.10
2023-05-13T05:58:42.049Z,64.95
2023-05-13T06:01:12.574Z,161.38
2023-05-13T06:03:41.792Z,81.75
2023-05-13T06:06:10.855Z,88.63
2023-05-13T06:08:39.926Z,88.25
2023-05-13T06:11:10.061Z,73.07
2023-05-13T06:13:39.428Z,76.53
2023-05-13T06:16:08.601Z,192.52
2023-05-13T06:18:41.690Z,89.00
2023-05-13T06:21:10.804Z,123.63
2023-05-13T06:23:40.007Z,139.57
2023-05-13T06:26:09.060Z,108.18
2023-05-13T06:28:39.229Z,73.28
2023-05-13T06:31:08.263Z,57.90
2023-05-13T06:33:39.403Z,98.07
2023-05-13T06:36:10.575Z,105.45
2023-05-13T06:38:39.672Z,46.55
2023-05-13T06:41:08.767Z,128.93
2023-05-13T06:43:40.234Z,73.90
2023-05-13T06:46:16.606Z,30.80
2023-05-13T06:48:45.960Z,116.72
2023-05-13T06:51:16.438Z,55.47
2023-05-13T06:53:45.682Z,76.78
2023-05-13T06:56:14.694Z,58.45
2023-05-13T06:58:43.774Z,96.45
2023-05-13T07:01:13.119Z,45.10
2023-05-13T07:03:42.623Z,27.80
2023-05-13T07:06:11.990Z,29.15
2023-05-13T07:08:42.460Z,39.15
2023-05-13T07:11:11.501Z,27.77
2023-05-13T07:13:40.633Z,39.30
2023-05-13T07:16:09.602Z,26.77
2023-05-13T07:18:38.745Z,25.17
2023-05-13T07:21:07.826Z,25.55
2023-05-13T07:23:36.970Z,15.57
2023-05-13T07:26:07.504Z,17.50
2023-05-13T07:28:36.693Z,24.60
2023-05-13T07:31:06.563Z,16.63
2023-05-13T07:33:35.669Z,19.73
2023-05-13T07:36:05.875Z,17.90
2023-05-13T07:38:35.063Z,30.23
2023-05-13T07:41:04.146Z,28.65
2023-05-13T07:43:35.167Z,22.13
2023-05-13T07:46:04.317Z,22.27
2023-05-13T07:48:33.722Z,16.90
2023-05-13T07:51:03.213Z,22.77
2023-05-13T07:53:32.426Z,20.33
2023-05-13T07:56:01.457Z,22.10
2023-05-13T07:58:30.599Z,22.77
2023-05-13T08:01:01.204Z,22.10
2023-05-13T08:03:30.381Z,17.10
2023-05-13T08:05:59.452Z,14.38
2023-05-13T08:08:28.594Z,17.58
2023-05-13T08:10:58.006Z,14.27
2023-05-13T08:13:27.168Z,17.73
2023-05-13T08:15:56.287Z,16.35
2023-05-13T08:18:26.903Z,21.20
2023-05-13T08:20:55.989Z,16.25
2023-05-13T08:23:36.898Z,17.25
2023-05-13T08:26:12.945Z,14.88
2023-05-13T08:28:42.663Z,17.45
2023-05-13T08:31:13.428Z,16.48
2023-05-13T08:33:46.095Z,19.55
2023-05-13T08:36:15.682Z,20.63
2023-05-13T08:38:44.908Z,20.58
2023-05-13T08:41:15.080Z,19.10
2023-05-13T08:43:44.782Z,21.08
2023-05-13T08:46:14.800Z,20.67
2023-05-13T08:48:46.070Z,21.13
2023-05-13T08:51:15.183Z,18.55
2023-05-13T08:53:47.670Z,20.40
2023-05-13T08:56:16.760Z,23.40
2023-05-13T08:58:46.045Z,20.08
2023-05-13T09:01:15.844Z,21.58
2023-05-13T09:03:55.736Z,18.92
2023-05-13T09:06:24.826Z,21.45
2023-05-13T09:08:54.526Z,21.73
2023-05-13T09:11:24.296Z,26.05
2023-05-13T09:14:00.151Z,26.52
2023-05-13T09:16:30.369Z,28.60
2023-05-13T09:19:01.749Z,26.25
2023-05-13T09:24:18.259Z,26.88
2023-05-13T09:26:47.625Z,30.48
2023-05-13T09:29:22.008Z,31.65
2023-05-13T09:31:53.191Z,30.70
2023-05-13T09:34:31.406Z,30.85
2023-05-13T09:37:03.425Z,28.13
2023-05-13T09:39:34.205Z,26.85
2023-05-13T09:42:05.397Z,25.65
2023-05-13T09:47:04.592Z,26.10
2023-05-13T09:49:35.232Z,27.25
2023-05-13T09:52:10.045Z,28.05
2023-05-13T09:54:39.202Z,23.67
2023-05-13T09:57:08.485Z,20.98
2023-05-13T09:59:37.591Z,23.15
2023-05-13T10:02:08.242Z,19.08
2023-05-13T10:04:39.200Z,21.77
2023-05-13T10:07:10.069Z,18.27
2023-05-13T10:09:39.947Z,16.95
2023-05-13T10:12:10.692Z,17.67
2023-05-13T10:14:40.965Z,17.02
2023-05-13T10:17:10.969Z,20.10
2023-05-13T10:19:42.026Z,20.90
2023-05-13T10:22:11.972Z,16.73
2023-05-13T10:24:41.231Z,15.05
2023-05-13T10:27:12.554Z,16.20
2023-05-13T10:29:42.328Z,16.30
2023-05-13T10:32:12.519Z,14.57
2023-05-13T10:34:45.344Z,14.20
2023-05-13T10:37:51.451Z,17.17
2023-05-13T10:40:56.895Z,16.35
2023-05-13T10:43:29.437Z,17.70
2023-05-13T10:45:59.672Z,17.52
2023-05-13T10:48:38.982Z,15.77
2023-05-13T10:51:09.947Z,15.32
2023-05-13T10:53:45.207Z,14.80
2023-05-13T10:56:14.348Z,17.15
2023-05-13T10:58:43.441Z,16.30
2023-05-13T11:01:18.322Z,16.27
2023-05-13T11:03:54.786Z,15.10
2023-05-13T11:06:30.506Z,15.95
2023-05-13T11:08:59.563Z,16.38
2023-05-13T11:11:33.272Z,17.20
2023-05-13T11:14:17.954Z,16.52
2023-05-13T11:16:48.524Z,17.52
2023-05-13T11:19:23.224Z,17.70
2023-05-13T11:21:55.505Z,20.00
2023-05-13T11:24:25.477Z,18.63
2023-05-13T11:26:56.395Z,17.38
2023-05-13T11:29:32.794Z,18.75
2023-05-13T11:32:02.657Z,19.90
2023-05-13T11:34:32.894Z,19.27
2023-05-13T11:37:11.576Z,20.80
2023-05-13T11:39:42.243Z,18.95
2023-05-13T11:42:12.441Z,20.38
2023-05-13T11:44:47.761Z,21.77
2023-05-13T11:47:26.386Z,21.48
2023-05-13T11:49:55.952Z,20.52
2023-05-13T11:52:28.460Z,22.83
2023-05-13T11:54:59.047Z,22.10
2023-05-13T11:57:32.817Z,20.13
2023-05-13T12:00:05.639Z,21.52
2023-05-13T12:02:40.582Z,24.02
2023-05-13T12:05:11.756Z,20.60
2023-05-13T12:07:42.239Z,21.17
2023-05-13T12:10:11.877Z,22.63
2023-05-13T12:12:41.978Z,23.38
2023-05-13T12:15:13.591Z,22.10
2023-05-13T12:17:42.800Z,25.33
2023-05-13T12:20:14.431Z,22.92
2023-05-13T12:22:57.024Z,23.55
2023-05-13T12:25:44.049Z,25.02
2023-05-13T12:28:16.972Z,28.10
2023-05-13T12:30:53.452Z,25.65
2023-05-13T12:33:25.613Z,27.02
2023-05-13T12:36:14.921Z,26.00
2023-05-13T12:39:00.254Z,26.25
2023-05-13T12:41:31.427Z,26.65
2023-05-13T12:44:01.901Z,28.23
2023-05-13T12:46:31.562Z,28.90
2023-05-13T12:49:03.232Z,26.52
2023-05-13T12:51:33.981Z,26.73
2023-05-13T12:54:04.596Z,28.73
2023-05-13T12:56:33.779Z,29.38
2023-05-13T12:59:02.935Z,25.23
2023-05-13T13:01:32.123Z,26.98
2023-05-13T13:04:01.478Z,22.65
2023-05-13T13:06:32.730Z,22.83
2023-05-13T13:09:01.792Z,26.48
2023-05-13T13:11:32.388Z,26.98
2023-05-13T13:14:01.508Z,26.35
2023-05-13T13:16:30.695Z,27.25
2023-05-13T13:19:01.840Z,24.98
2023-05-13T13:21:32.204Z,27.05
2023-05-13T13:24:01.345Z,24.50
2023-05-13T13:26:31.814Z,28.50
2023-05-13T13:29:00.900Z,25.93
2023-05-13T13:31:30.036Z,27.65
2023-05-13T13:34:04.224Z,25.85
2023-05-13T13:36:33.327Z,26.45
2023-05-13T13:39:02.374Z,29.33
2023-05-13T13:41:32.875Z,25.95
2023-05-13T13:44:01.886Z,28.63
2023-05-13T13:46:31.016Z,32.38
2023-05-13T13:49:03.918Z,30.00
2023-05-13T13:51:39.491Z,27.50
2023-05-13T13:54:09.210Z,26.25
2023-05-13T13:56:40.111Z,29.35
2023-05-13T13:59:09.156Z,28.00
2023-05-13T14:01:39.515Z,33.20
2023-05-13T14:04:12.509Z,25.23
2023-05-13T14:06:44.461Z,32.55
2023-05-13T14:09:13.650Z,33.40
2023-05-13T14:11:44.306Z,30.08
2023-05-13T14:14:13.538Z,29.30
2023-05-13T14:16:42.628Z,28.60
2023-05-13T14:19:12.509Z,33.15
2023-05-13T14:21:41.817Z,30.80
2023-05-13T14:24:12.046Z,29.75
2023-05-13T14:26:41.302Z,31.73
2023-05-13T14:29:11.788Z,33.92
2023-05-13T14:31:40.832Z,30.30
2023-05-13T14:34:09.946Z,29.88
2023-05-13T14:36:39.129Z,31.75
2023-05-13T14:39:09.741Z,29.15
2023-05-13T14:41:40.355Z,31.95
2023-05-13T14:44:09.477Z,31.30
2023-05-13T14:46:41.414Z,33.35
2023-05-13T14:49:10.557Z,34.13
2023-05-13T14:51:39.858Z,32.70
2023-05-13T14:54:09.182Z,31.95
2023-05-13T14:56:38.399Z,31.27
2023-05-13T14:59:07.537Z,30.77
2023-05-13T15:01:36.866Z,31.80
2023-05-13T15:04:08.048Z,30.25
2023-05-13T15:06:38.922Z,25.23
2023-05-13T15:09:08.037Z,27.23
2023-05-13T15:14:08.165Z,27.88
2023-05-13T15:16:37.536Z,33.40
2023-05-13T15:19:09.214Z,33.15
2023-05-13T15:21:39.091Z,32.20
2023-05-13T15:24:08.444Z,27.45
2023-05-13T15:26:46.455Z,27.38
2023-05-13T15:29:16.648Z,28.27
2023-05-13T15:31:45.726Z,26.48
2023-05-13T15:34:16.416Z,29.85
2023-05-13T15:36:45.505Z,30.95
2023-05-13T15:39:16.579Z,27.63
2023-05-13T15:41:46.013Z,27.33
2023-05-13T15:44:15.068Z,25.20
2023-05-13T15:46:44.247Z,25.80
2023-05-13T15:49:15.172Z,28.67
2023-05-13T15:51:44.418Z,26.00
2023-05-13T15:54:13.522Z,28.90
2023-05-13T15:56:42.555Z,30.70
2023-05-13T15:59:11.710Z,30.05
2023-05-13T16:01:42.033Z,30.13
2023-05-13T16:04:15.380Z,32.05
2023-05-13T16:06:44.525Z,36.38
2023-05-13T16:09:13.541Z,33.13
2023-05-13T16:11:45.248Z,30.27
2023-05-13T16:14:14.859Z,31.70
2023-05-13T16:16:45.271Z,34.00
2023-05-13T16:19:16.589Z,34.55
2023-05-13T16:24:14.735Z,32.72
2023-05-13T16:26:43.802Z,30.70
2023-05-13T16:29:13.012Z,30.92
2023-05-13T16:31:42.190Z,32.08
2023-05-13T16:34:11.317Z,38.50
2023-05-13T16:36:41.842Z,39.42
2023-05-13T16:39:10.910Z,40.17
2023-05-13T16:41:40.388Z,37.97
2023-05-13T16:44:12.523Z,41.80
2023-05-13T16:46:41.894Z,44.00
2023-05-13T16:49:10.977Z,42.85
2023-05-13T16:51:41.715Z,47.38
2023-05-13T16:54:13.464Z,44.72
2023-05-13T16:56:42.696Z,44.85
2023-05-13T16:59:19.700Z,41.05
2023-05-13T17:01:50.089Z,43.63
2023-05-13T17:04:19.520Z,45.83
2023-05-13T17:06:49.989Z,45.72
2023-05-13T17:09:19.135Z,45.15
2023-05-13T17:11:48.234Z,49.83
2023-05-13T17:14:17.390Z,48.63
2023-05-13T17:16:46.507Z,41.92
2023-05-13T17:19:16.099Z,38.78
2023-05-13T17:21:45.422Z,36.08
2023-05-13T17:24:18.462Z,44.13
2023-05-13T17:26:47.536Z,41.03
2023-05-13T17:29:21.058Z,44.50
2023-05-13T17:31:52.269Z,40.60
2023-05-13T17:34:21.298Z,45.30
2023-05-13T17:36:52.508Z,47.97
2023-05-13T17:41:51.819Z,41.88
2023-05-13T17:44:21.186Z,40.55
2023-05-13T17:46:52.600Z,48.40
2023-05-13T17:51:50.394Z,44.47
2023-05-13T17:54:19.404Z,45.15
2023-05-13T17:56:50.707Z,45.35
2023-05-13T18:01:48.482Z,39.25
2023-05-13T18:04:17.554Z,39.88
2023-05-13T18:06:46.602Z,43.42
2023-05-13T18:09:15.724Z,45.72
2023-05-13T18:11:44.745Z,42.45
2023-05-13T18:14:15.144Z,42.47
2023-05-13T18:16:44.381Z,43.60
2023-05-13T18:19:13.517Z,47.42
2023-05-13T18:21:42.667Z,45.00
2023-05-13T18:24:14.494Z,46.30
2023-05-13T18:26:43.677Z,43.30
2023-05-13T18:29:14.399Z,39.15
2023-05-13T18:31:43.513Z,41.42
2023-05-13T18:34:12.787Z,46.83
2023-05-13T18:36:41.842Z,44.63
2023-05-13T18:39:11.203Z,43.92
2023-05-13T18:41:40.231Z,48.03
2023-05-13T18:44:09.403Z,43.60
2023-05-13T18:46:39.953Z,47.28
2023-05-13T18:49:09.081Z,44.20
2023-05-13T18:51:38.322Z,47.53
2023-05-13T18:54:07.477Z,48.35
2023-05-13T18:56:36.584Z,44.45
2023-05-13T18:59:05.707Z,49.72
2023-05-13T19:01:34.881Z,44.78
2023-05-13T19:04:05.420Z,46.97
2023-05-13T19:06:38.020Z,49.75
2023-05-13T19:09:07.123Z,45.05
2023-05-13T19:11:37.412Z,52.60
2023-05-13T19:14:06.614Z,49.78
2023-05-13T19:16:35.715Z,47.15
2023-05-13T19:19:06.201Z,44.78
2023-05-13T19:21:35.364Z,45.30
2023-05-13T19:24:04.628Z,47.92
2023-05-13T19:26:33.793Z,47.97
2023-05-13T19:29:03.331Z,51.03
2023-05-13T19:31:32.619Z,48.22
2023-05-13T19:34:01.975Z,50.33
2023-05-13T19:36:32.753Z,53.50
2023-05-13T19:39:02.117Z,54.22
2023-05-13T19:41:31.219Z,48.55
2023-05-13T19:44:01.488Z,49.70
2023-05-13T19:46:30.665Z,48.45
2023-05-13T19:48:59.697Z,49.10
2023-05-13T19:51:28.806Z,59.38
2023-05-13T19:53:59.262Z,58.03
2023-05-13T19:56:28.406Z,52.80
2023-05-13T19:58:57.475Z,54.45
2023-05-13T20:01:26.673Z,55.45
2023-05-13T20:03:55.924Z,51.50
2023-05-13T20:06:25.005Z,58.17
2023-05-13T20:08:54.070Z,58.20
2023-05-13T20:11:24.475Z,55.30
2023-05-13T20:13:53.590Z,60.73
2023-05-13T20:16:23.605Z,56.95
2023-05-13T20:18:52.884Z,58.05
2023-05-13T20:21:22.045Z,56.67
2023-05-13T20:23:51.036Z,58.47
2023-05-13T20:26:20.160Z,53.38
2023-05-13T20:28:52.037Z,59.67
2023-05-13T20:31:21.093Z,61.20
2023-05-13T20:33:50.138Z,59.80
2023-05-13T20:36:19.307Z,59.58
2023-05-13T20:38:48.776Z,63.97
2023-05-13T20:41:18.247Z,63.25
2023-05-13T20:43:47.305Z,60.55
2023-05-13T20:46:17.893Z,69.43
2023-05-13T20:48:47.951Z,64.25
2023-05-13T20:51:17.010Z,62.50
2023-05-13T20:53:47.389Z,66.78
2023-05-13T20:56:16.462Z,67.47
2023-05-13T20:58:45.466Z,67.82
2023-05-13T21:01:14.493Z,71.65
2023-05-13T21:03:45.089Z,72.18
2023-05-13T21:06:14.111Z,60.97
2023-05-13T21:08:44.282Z,66.97
2023-05-13T21:11:13.333Z,65.32
2023-05-13T21:13:42.389Z,65.28
2023-05-13T21:16:11.672Z,66.15
2023-05-13T21:18:40.943Z,68.32
2023-05-13T21:21:12.627Z,66.85
2023-05-13T21:23:43.508Z,65.25
2023-05-13T21:26:12.673Z,69.75
2023-05-13T21:28:41.879Z,65.35
2023-05-13T21:31:11.278Z,69.80
2023-05-13T21:33:40.333Z,74.68
2023-05-13T21:36:11.073Z,77.15
2023-05-13T21:38:40.097Z,72.57
2023-05-13T21:41:09.229Z,65.70
2023-05-13T21:43:38.247Z,76.80
2023-05-13T21:46:07.615Z,71.15
2023-05-13T21:48:36.690Z,73.25
2023-05-13T21:51:06.148Z,72.53
2023-05-13T21:53:36.612Z,71.10
2023-05-13T21:56:08.707Z,69.43
2023-05-13T21:58:37.745Z,70.35
2023-05-13T22:01:07.080Z,69.32
2023-05-13T22:03:36.487Z,67.22
2023-05-13T22:06:05.762Z,71.55
2023-05-13T22:08:36.453Z,66.80
2023-05-13T22:11:05.508Z,67.88
2023-05-13T22:13:34.799Z,70.65
2023-05-13T22:16:04.073Z,70.60
2023-05-13T22:18:33.403Z,66.90
2023-05-13T22:21:02.748Z,71.30
2023-05-13T22:23:32.006Z,76.38
2023-05-13T22:26:02.410Z,71.40
2023-05-13T22:28:31.423Z,69.50
2023-05-13T22:31:00.469Z,68.88
2023-05-13T22:33:29.554Z,70.15
2023-05-13T22:35:58.575Z,79.68
2023-05-13T22:38:27.609Z,73.70
2023-05-13T22:40:56.729Z,71.47
2023-05-13T22:43:27.099Z,75.38
2023-05-13T22:45:56.206Z,68.95
2023-05-13T22:48:25.468Z,69.68
2023-05-13T22:50:57.183Z,69.53
2023-05-13T22:53:26.537Z,73.20
2023-05-13T22:55:55.530Z,75.43
2023-05-13T22:58:26.386Z,78.18
2023-05-13T23:00:55.572Z,71.85
2023-05-13T23:03:24.655Z,68.57
2023-05-13T23:05:53.705Z,67.63
2023-05-13T23:08:22.740Z,68.80
2023-05-13T23:10:51.799Z,65.07
2023-05-13T23:13:20.946Z,65.05
2023-05-13T23:15:51.384Z,62.28
2023-05-13T23:18:21.150Z,64.50
2023-05-13T23:20:51.890Z,68.32
2023-05-13T23:23:21.267Z,58.20
2023-05-13T23:25:51.457Z,62.10
2023-05-13T23:28:20.494Z,57.00
2023-05-13T23:30:54.092Z,65.40
2023-05-13T23:33:23.134Z,56.65
2023-05-13T23:35:54.362Z,58.28
2023-05-13T23:38:23.627Z,57.00
2023-05-13T23:40:52.707Z,57.20
2023-05-13T23:43:21.671Z,55.03
2023-05-13T23:45:52.109Z,51.08
2023-05-13T23:48:21.106Z,55.07
2023-05-13T23:50:50.104Z,54.95
2023-05-13T23:53:19.115Z,47.90
2023-05-13T23:55:49.288Z,53.10
2023-05-13T23:58:18.440Z,54.92
